Time;durP1;ratioP1;P1;durP2;ratioP2;P2;SDS_P1;SDS_P2;PMS_P1;PMS_P2;Temp;Humidity;BMP_temperature;BMP_pressure;BME280_temperature;BME280_humidity;BME280_pressure;Samples;Min_cycle;Max_cycle;Signal;HPM_P1;HPM_P2
2024/01/27 00:00:31;;;;;;;2.97;1.30;;;;;;;17.95;100.00;102996.25;4991535;28;20069;-48
2024/01/27 00:02:58;;;;;;;4.45;1.42;;;;;;;17.92;100.00;102995.00;4991767;28;20039;-49
2024/01/27 00:05:24;;;;;;;3.58;1.40;;;;;;;17.92;100.00;102991.41;4993049;28;20056;-42
2024/01/27 00:07:56;;;;;;;2.42;1.10;;;;;;;17.93;100.00;102995.81;4988111;28;20121;-46
2024/01/27 00:10:23;;;;;;;4.78;1.95;;;;;;;17.91;100.00;102998.22;4991124;28;20103;-47
2024/01/27 00:12:49;;;;;;;2.80;1.20;;;;;;;17.93;100.00;102998.63;4993746;28;20098;-45
2024/01/27 00:15:16;;;;;;;2.95;1.13;;;;;;;17.94;100.00;102997.44;4988720;28;20096;-49
2024/01/27 00:17:42;;;;;;;6.20;1.52;;;;;;;17.94;100.00;103003.06;4988244;28;20134;-52
2024/01/27 00:20:09;;;;;;;4.35;1.45;;;;;;;17.92;100.00;103005.50;4995647;28;20460;-47
2024/01/27 00:22:36;;;;;;;4.82;1.48;;;;;;;17.94;100.00;103003.06;5001863;28;20096;-46
2024/01/27 00:25:03;;;;;;;6.40;1.13;;;;;;;17.95;100.00;103010.31;4999017;28;20054;-48
2024/01/27 00:27:30;;;;;;;2.72;1.25;;;;;;;17.95;100.00;103007.50;5003047;28;20042;-49
2024/01/27 00:29:56;;;;;;;6.50;1.63;;;;;;;17.93;100.00;103021.16;5001330;28;20042;-48
2024/01/27 00:32:23;;;;;;;4.20;1.30;;;;;;;17.92;100.00;103022.38;5003487;28;20420;-47
2024/01/27 00:34:49;;;;;;;2.58;1.27;;;;;;;17.94;100.00;103042.47;4999946;28;20119;-47
2024/01/27 00:37:17;;;;;;;5.35;1.40;;;;;;;17.93;100.00;103040.84;5002172;28;20455;-50
2024/01/27 00:39:45;;;;;;;2.92;1.00;;;;;;;17.95;100.00;103038.47;5002676;28;20046;-49
2024/01/27 00:42:12;;;;;;;3.33;1.13;;;;;;;17.95;100.00;103038.47;5000387;28;20454;-47
2024/01/27 00:44:38;;;;;;;4.20;1.00;;;;;;;17.94;100.00;103048.09;4988914;28;20058;-50
2024/01/27 00:47:05;;;;;;;5.63;1.23;;;;;;;17.95;100.00;103049.72;4996396;28;20081;-47
2024/01/27 00:49:31;;;;;;;2.60;1.33;;;;;;;17.96;100.00;103056.94;5003802;28;20065;-45
2024/01/27 00:51:58;;;;;;;3.08;1.13;;;;;;;17.95;100.00;103049.72;5006848;28;20045;-48
2024/01/27 00:54:25;;;;;;;4.63;1.20;;;;;;;17.95;100.00;103046.91;5005435;28;20129;-48
2024/01/27 00:56:52;;;;;;;3.40;1.23;;;;;;;17.95;100.00;103056.13;5007967;28;20459;-49
2024/01/27 00:59:19;;;;;;;3.33;1.05;;;;;;;17.95;100.00;103049.72;5000405;28;20575;-49
2024/01/27 01:01:45;;;;;;;3.95;1.20;;;;;;;17.91;100.00;103052.53;5005423;28;20128;-48
2024/01/27 01:04:12;;;;;;;6.00;1.20;;;;;;;17.94;100.00;103053.72;5007501;28;20050;-50
2024/01/27 01:06:40;;;;;;;5.25;1.58;;;;;;;17.96;100.00;103054.13;5009602;28;20049;-48
2024/01/27 01:09:07;;;;;;;4.57;1.67;;;;;;;17.95;100.00;103060.97;5005715;28;20512;-47
2024/01/27 01:11:33;;;;;;;4.50;1.08;;;;;;;17.96;100.00;103060.53;5009676;28;20046;-50
2024/01/27 01:14:04;;;;;;;3.08;1.23;;;;;;;17.94;100.00;103060.16;5001845;28;20045;-47
2024/01/27 01:16:33;;;;;;;5.18;1.20;;;;;;;17.94;100.00;103048.09;5004521;28;20054;-45
2024/01/27 01:18:59;;;;;;;3.05;1.30;;;;;;;17.92;100.00;103047.69;5002882;28;20137;-50
2024/01/27 01:21:26;;;;;;;4.32;1.52;;;;;;;17.90;100.00;103044.50;5009315;28;20041;-46
2024/01/27 01:23:53;;;;;;;3.40;1.20;;;;;;;17.92;100.00;103051.28;5005666;28;20038;-49
2024/01/27 01:26:20;;;;;;;3.65;1.40;;;;;;;17.94;100.00;103045.28;5008520;28;20563;-47
2024/01/27 01:28:46;;;;;;;4.72;1.27;;;;;;;17.96;100.00;103054.13;5007965;28;20053;-50
2024/01/27 01:31:13;;;;;;;4.22;1.38;;;;;;;17.95;100.00;103049.72;5007461;28;20716;-49
2024/01/27 01:33:39;;;;;;;2.92;1.13;;;;;;;17.95;100.00;103058.94;5003440;28;20073;-48
2024/01/27 01:36:06;;;;;;;2.88;1.17;;;;;;;17.94;100.00;103060.16;5006216;28;20757;-44
2024/01/27 01:38:33;;;;;;;3.67;1.35;;;;;;;17.95;100.00;103055.34;5006349;28;20069;-46
2024/01/27 01:40:59;;;;;;;5.72;1.13;;;;;;;17.91;100.00;103054.53;5006851;28;20042;-46
2024/01/27 01:43:26;;;;;;;3.13;1.38;;;;;;;17.91;100.00;103054.53;5004541;28;20050;-47
2024/01/27 01:45:56;;;;;;;2.85;1.10;;;;;;;17.89;100.00;103060.56;5008566;28;20133;-48
2024/01/27 01:48:23;;;;;;;2.22;1.00;;;;;;;17.93;100.00;103054.94;4998772;28;20046;-49
2024/01/27 01:50:49;;;;;;;2.65;1.27;;;;;;;17.94;100.00;103051.72;4996785;28;20050;-48
2024/01/27 01:53:16;;;;;;;1.83;1.08;;;;;;;17.96;100.00;103051.31;5007501;28;20050;-48
2024/01/27 01:55:43;;;;;;;5.63;1.50;;;;;;;17.95;100.00;103052.53;5004731;28;20050;-46
2024/01/27 01:58:09;;;;;;;3.05;1.30;;;;;;;17.93;100.00;103052.09;4999806;28;20181;-50
2024/01/27 02:00:36;;;;;;;2.53;1.17;;;;;;;17.96;100.00;103062.56;5007761;28;20078;-49
2024/01/27 02:03:03;;;;;;;3.38;1.30;;;;;;;17.96;100.00;103059.75;4996255;28;20077;-47
2024/01/27 02:05:31;;;;;;;4.60;1.48;;;;;;;17.94;100.00;103054.53;5000403;28;20049;-49
2024/01/27 02:07:59;;;;;;;3.30;1.25;;;;;;;17.96;100.00;103065.38;5002358;28;20052;-48
2024/01/27 02:10:26;;;;;;;4.53;1.20;;;;;;;17.96;100.00;103062.56;5004444;28;20129;-47
2024/01/27 02:12:52;;;;;;;5.07;1.52;;;;;;;17.93;100.00;103063.38;4989800;28;20170;-50
2024/01/27 02:15:20;;;;;;;4.80;1.10;;;;;;;17.93;100.00;103063.38;5004205;28;20108;-48
2024/01/27 02:17:46;;;;;;;5.22;1.30;;;;;;;17.92;100.00;103064.59;4997660;28;20417;-48
2024/01/27 02:20:13;;;;;;;3.83;0.95;;;;;;;17.94;100.00;103070.63;5001404;28;20046;-47
2024/01/27 02:22:39;;;;;;;3.60;1.15;;;;;;;17.91;100.00;103072.22;5006412;28;20554;-46
2024/01/27 02:25:06;;;;;;;4.25;1.10;;;;;;;17.95;100.00;103060.97;5000547;28;20508;-47
2024/01/27 02:27:33;;;;;;;2.55;1.33;;;;;;;17.92;100.00;103062.56;4999544;28;20128;-46
2024/01/27 02:29:59;;;;;;;3.88;1.30;;;;;;;17.94;100.00;103056.53;4989733;28;20409;-47
2024/01/27 02:32:26;;;;;;;7.10;1.45;;;;;;;17.95;100.00;103060.97;4991046;28;20059;-46
2024/01/27 02:34:53;;;;;;;3.75;1.17;;;;;;;17.94;100.00;103065.00;4990830;28;20452;-46
2024/01/27 02:37:19;;;;;;;3.30;1.27;;;;;;;17.91;100.00;103057.34;4993990;28;20057;-46
2024/01/27 02:39:46;;;;;;;3.72;1.30;;;;;;;17.91;100.00;103063.78;4991861;28;20047;-43
2024/01/27 02:42:12;;;;;;;3.22;1.30;;;;;;;17.90;100.00;103067.81;4991111;28;20078;-48
2024/01/27 02:44:39;;;;;;;8.25;1.42;;;;;;;17.86;100.00;103057.78;4989883;28;20501;-46
2024/01/27 02:47:06;;;;;;;4.10;1.40;;;;;;;17.86;100.00;103060.59;4985597;28;20130;-46
2024/01/27 02:49:32;;;;;;;2.92;1.00;;;;;;;17.82;100.00;103063.41;4992553;28;20121;-47
2024/01/27 02:51:59;;;;;;;5.40;1.38;;;;;;;17.82;100.00;103066.25;4989590;28;20512;-48
2024/01/27 02:54:27;;;;;;;3.20;1.17;;;;;;;17.82;100.00;103062.66;4992035;28;20129;-46
2024/01/27 02:56:53;;;;;;;3.33;1.10;;;;;;;17.82;100.00;103063.41;4990284;28;20046;-48
2024/01/27 02:59:20;;;;;;;4.63;1.45;;;;;;;17.83;100.00;103061.41;4993395;28;20058;-47
2024/01/27 03:01:47;;;;;;;3.38;1.20;;;;;;;17.82;100.00;103062.66;4989897;28;20047;-45
2024/01/27 03:04:13;;;;;;;6.68;1.10;;;;;;;17.80;100.00;103065.06;4991146;28;20054;-46
2024/01/27 03:06:40;;;;;;;3.40;1.30;;;;;;;17.81;100.00;103061.03;4990343;28;20054;-49
2024/01/27 03:09:06;;;;;;;5.60;1.50;;;;;;;17.77;100.00;103068.69;4989762;28;20050;-45
2024/01/27 03:11:33;;;;;;;2.78;1.40;;;;;;;17.80;100.00;103062.25;4990823;28;20053;-49
2024/01/27 03:13:59;;;;;;;4.13;1.10;;;;;;;17.78;100.00;103061.88;4990455;28;20121;-47
2024/01/27 03:16:26;;;;;;;2.95;1.00;;;;;;;17.77;100.00;103054.63;4990038;28;20100;-48
2024/01/27 03:18:52;;;;;;;6.88;1.42;;;;;;;17.78;100.00;103062.66;4993315;28;20073;-50
2024/01/27 03:21:19;;;;;;;5.45;1.20;;;;;;;17.77;100.00;103051.81;4989691;28;20143;-48
2024/01/27 03:23:46;;;;;;;3.60;1.00;;;;;;;17.77;100.00;103060.25;4990158;28;20436;-44
2024/01/27 03:26:12;;;;;;;2.80;0.95;;;;;;;17.78;100.00;103059.84;4989004;28;20058;-46
2024/01/27 03:28:39;;;;;;;2.75;1.25;;;;;;;17.77;100.00;103065.88;4990180;28;20149;-45
2024/01/27 03:31:05;;;;;;;6.80;1.10;;;;;;;17.74;100.00;103056.25;4989687;28;20129;-46
2024/01/27 03:33:32;;;;;;;2.78;1.15;;;;;;;17.74;100.00;103061.88;4993168;28;20125;-46
2024/01/27 03:35:59;;;;;;;3.70;1.05;;;;;;;17.73;100.00;103065.09;4988773;28;20047;-45
2024/01/27 03:38:26;;;;;;;3.45;1.33;;;;;;;17.75;100.00;103062.69;4989981;28;20440;-48
2024/01/27 03:40:53;;;;;;;4.75;1.00;;;;;;;17.72;100.00;103060.69;4989896;28;20512;-48
2024/01/27 03:43:20;;;;;;;5.75;1.48;;;;;;;17.71;100.00;103067.50;4988957;28;20054;-46
2024/01/27 03:45:46;;;;;;;3.55;1.20;;;;;;;17.70;100.00;103063.91;4990755;28;20074;-47
2024/01/27 03:48:13;;;;;;;2.40;0.98;;;;;;;17.71;100.00;103067.50;4992891;28;20054;-48
2024/01/27 03:50:39;;;;;;;3.00;1.27;;;;;;;17.72;100.00;103064.28;4989062;28;20085;-45
2024/01/27 03:53:06;;;;;;;2.33;1.20;;;;;;;17.73;100.00;103073.53;4988726;28;20050;-47
2024/01/27 03:55:34;;;;;;;3.63;1.17;;;;;;;17.73;100.00;103070.72;4986622;28;20556;-48
2024/01/27 03:58:01;;;;;;;3.53;1.05;;;;;;;17.74;100.00;103077.94;4988104;28;20453;-46
2024/01/27 04:00:29;;;;;;;4.10;1.15;;;;;;;17.69;100.00;103075.59;4991935;28;20136;-47
2024/01/27 04:02:56;;;;;;;4.78;1.17;;;;;;;17.70;100.00;103077.16;4988887;28;20142;-49
2024/01/27 04:05:22;;;;;;;0.93;0.77;;;;;;;17.69;100.00;103082.03;4988624;28;20038;-47
2024/01/27 04:07:50;;;;;;;2.47;1.05;;;;;;;17.69;100.00;103092.47;4988747;28;20261;-48
2024/01/27 04:10:18;;;;;;;4.43;1.40;;;;;;;17.69;100.00;103089.66;4987923;28;20377;-47
2024/01/27 04:12:45;;;;;;;3.88;1.10;;;;;;;17.69;100.00;103089.66;4994273;28;20043;-46
2024/01/27 04:15:11;;;;;;;2.35;1.10;;;;;;;17.68;100.00;103083.22;4988546;28;20447;-45
2024/01/27 04:17:38;;;;;;;5.32;1.23;;;;;;;17.70;100.00;103077.16;4983558;28;20042;-46
2024/01/27 04:20:05;;;;;;;3.70;1.10;;;;;;;17.66;100.00;103087.66;4992577;28;20048;-48
2024/01/27 04:22:32;;;;;;;4.63;1.42;;;;;;;17.65;100.00;103081.22;4989330;28;20058;-47
2024/01/27 04:24:59;;;;;;;5.80;1.20;;;;;;;17.67;100.00;103086.44;4987332;28;20038;-48
2024/01/27 04:27:27;;;;;;;5.30;1.42;;;;;;;17.65;100.00;103091.69;4988623;28;20050;-46
2024/01/27 04:29:54;;;;;;;4.60;1.42;;;;;;;17.64;100.00;103085.25;4988888;28;20044;-48
2024/01/27 04:32:21;;;;;;;6.53;1.38;;;;;;;17.62;100.00;103093.28;4988025;28;20054;-46
2024/01/27 04:34:48;;;;;;;7.38;1.40;;;;;;;17.63;100.00;103092.09;4989257;28;20042;-47
2024/01/27 04:37:14;;;;;;;2.15;0.93;;;;;;;17.62;100.00;103082.03;4987684;28;20085;-46
2024/01/27 04:39:41;;;;;;;3.78;1.00;;;;;;;17.65;100.00;103091.69;4987986;28;20489;-49
2024/01/27 04:42:08;;;;;;;3.13;1.00;;;;;;;17.64;100.00;103084.44;4989480;28;20038;-46
2024/01/27 04:44:35;;;;;;;4.57;1.15;;;;;;;17.63;100.00;103094.09;4990108;28;20089;-46
2024/01/27 04:47:01;;;;;;;4.72;1.40;;;;;;;17.63;100.00;103092.09;4985707;28;20489;-45
2024/01/27 04:49:28;;;;;;;4.28;1.25;;;;;;;17.63;100.00;103088.47;4988136;28;20042;-44
2024/01/27 04:51:54;;;;;;;4.00;1.20;;;;;;;17.64;100.00;103095.69;4988464;28;20050;-46
2024/01/27 04:54:21;;;;;;;2.78;1.05;;;;;;;17.63;100.00;103089.28;4988610;28;20113;-49
2024/01/27 04:56:48;;;;;;;3.55;1.00;;;;;;;17.60;100.00;103089.28;4989655;28;20042;-45
2024/01/27 04:59:14;;;;;;;3.78;1.20;;;;;;;17.61;100.00;103096.53;4987863;28;20046;-45
2024/01/27 05:01:44;;;;;;;3.15;1.13;;;;;;;17.61;100.00;103102.16;4989952;28;20141;-46
2024/01/27 05:04:11;;;;;;;3.05;0.98;;;;;;;17.62;100.00;103103.75;4989541;28;20140;-48
2024/01/27 05:06:41;;;;;;;3.55;1.27;;;;;;;17.61;100.00;103093.72;4989457;28;20050;-47
2024/01/27 05:09:08;;;;;;;3.45;1.42;;;;;;;17.60;100.00;103103.34;4987710;28;20047;-48
2024/01/27 05:11:34;;;;;;;4.43;1.58;;;;;;;17.60;100.00;103089.28;4988654;28;20050;-44
2024/01/27 05:14:01;;;;;;;2.78;1.38;;;;;;;17.60;100.00;103094.91;4988195;28;20082;-47
2024/01/27 05:16:28;;;;;;;5.18;1.35;;;;;;;17.58;100.00;103089.69;4986739;28;20501;-48
2024/01/27 05:18:54;;;;;;;4.18;1.08;;;;;;;17.57;100.00;103090.09;4987089;28;20046;-47
2024/01/27 05:21:22;;;;;;;3.33;1.20;;;;;;;17.56;100.00;103100.56;4987821;28;20132;-45
2024/01/27 05:23:48;;;;;;;2.83;0.95;;;;;;;17.57;100.00;103088.09;4988825;28;20501;-47
2024/01/27 05:26:15;;;;;;;3.75;1.10;;;;;;;17.56;100.00;103077.25;4987921;28;20046;-45
2024/01/27 05:28:41;;;;;;;2.65;1.02;;;;;;;17.56;100.00;103086.50;4988521;28;20054;-48
2024/01/27 05:31:08;;;;;;;2.17;0.95;;;;;;;17.57;100.00;103084.47;4987226;28;20560;-50
2024/01/27 05:33:42;;;;;;;3.90;1.00;;;;;;;17.57;100.00;103081.66;4985900;28;20130;-49
2024/01/27 05:36:09;;;;;;;3.33;0.97;;;;;;;17.55;100.00;103082.06;4988046;28;20070;-48
2024/01/27 05:38:36;;;;;;;2.67;0.85;;;;;;;17.55;100.00;103098.16;4991508;28;20105;-46
2024/01/27 05:41:03;;;;;;;2.80;0.90;;;;;;;17.57;100.00;103092.91;4993981;28;20042;-48
2024/01/27 05:43:29;;;;;;;1.58;1.05;;;;;;;17.56;100.00;103082.88;4992087;28;20046;-49
2024/01/27 05:45:56;;;;;;;2.83;0.98;;;;;;;17.55;100.00;103087.69;4992342;28;20042;-48
2024/01/27 05:48:22;;;;;;;3.13;1.20;;;;;;;17.53;100.00;103092.13;4990685;28;20096;-48
2024/01/27 05:51:00;;;;;;;2.40;1.13;;;;;;;17.51;100.00;103086.91;4989566;28;20100;-44
2024/01/27 05:53:27;;;;;;;4.38;0.98;;;;;;;17.54;100.00;103096.53;4992358;28;20054;-46
2024/01/27 05:55:56;;;;;;;2.90;1.00;;;;;;;17.53;100.00;103094.94;4991985;28;20054;-47
2024/01/27 05:58:23;;;;;;;2.03;1.08;;;;;;;17.52;100.00;103099.78;4994548;28;20054;-48
2024/01/27 06:00:49;;;;;;;3.65;1.30;;;;;;;17.52;100.00;103087.72;4991303;28;20069;-48
2024/01/27 06:03:17;;;;;;;3.28;1.00;;;;;;;17.52;100.00;103090.53;4998032;28;20616;-47
2024/01/27 06:05:44;;;;;;;5.45;1.42;;;;;;;17.51;100.00;103103.78;4991569;28;20493;-49
2024/01/27 06:08:10;;;;;;;3.65;1.27;;;;;;;17.50;100.00;103102.19;4988457;28;20064;-49
2024/01/27 06:10:37;;;;;;;2.25;1.02;;;;;;;17.52;100.00;103098.97;4991422;28;20062;-46
2024/01/27 06:13:04;;;;;;;1.80;1.00;;;;;;;17.50;100.00;103104.19;4991439;28;20493;-48
2024/01/27 06:15:30;;;;;;;3.35;1.10;;;;;;;17.50;100.00;103109.81;4990384;28;20104;-47
2024/01/27 06:17:57;;;;;;;3.47;1.23;;;;;;;17.49;100.00;103105.41;4991181;28;20050;-47
2024/01/27 06:20:24;;;;;;;3.72;1.17;;;;;;;17.48;100.00;103106.63;4989950;28;20424;-46
2024/01/27 06:22:52;;;;;;;2.88;0.95;;;;;;;17.48;100.00;103109.44;4998316;28;20056;-46
2024/01/27 06:25:20;;;;;;;4.85;1.20;;;;;;;17.49;100.00;103114.66;4989176;28;20468;-45
2024/01/27 06:27:50;;;;;;;3.10;1.08;;;;;;;17.47;100.00;103110.63;4985685;28;20501;-50
2024/01/27 06:30:17;;;;;;;4.53;1.00;;;;;;;17.46;100.00;103123.09;4989987;28;20046;-46
2024/01/27 06:32:44;;;;;;;3.03;1.25;;;;;;;17.45;100.00;103110.25;4990946;28;20050;-46
2024/01/27 06:35:11;;;;;;;3.53;1.00;;;;;;;17.47;100.00;103116.25;4990164;28;20045;-45
2024/01/27 06:37:37;;;;;;;2.25;0.85;;;;;;;17.49;100.00;103120.28;4996009;28;20117;-46
2024/01/27 06:40:04;;;;;;;1.77;1.00;;;;;;;17.53;100.00;103120.25;4992287;28;20077;-48
2024/01/27 06:42:31;;;;;;;3.92;1.30;;;;;;;17.50;100.00;103116.25;4990162;28;20046;-45
2024/01/27 06:44:58;;;;;;;2.08;1.23;;;;;;;17.52;100.00;103118.66;5001348;28;20412;-49
2024/01/27 06:47:24;;;;;;;3.17;1.10;;;;;;;17.48;100.00;103115.84;4990097;28;20141;-44
2024/01/27 06:49:51;;;;;;;3.55;1.33;;;;;;;17.48;100.00;103124.28;4992870;28;20073;-46
2024/01/27 06:52:17;;;;;;;2.42;1.10;;;;;;;17.50;100.00;103126.69;4992451;28;20531;-46
2024/01/27 06:54:44;;;;;;;1.45;0.95;;;;;;;17.49;100.00;103122.28;4992577;28;20078;-44
2024/01/27 06:57:20;;;;;;;4.60;1.30;;;;;;;17.47;100.00;103135.94;4995952;28;20108;-45
2024/01/27 06:59:57;;;;;;;1.92;0.93;;;;;;;17.48;100.00;103141.16;4986841;28;20523;-45
2024/01/27 07:02:24;;;;;;;3.78;0.93;;;;;;;17.50;100.00;103146.38;4991869;28;20520;-47
2024/01/27 07:04:51;;;;;;;1.95;1.02;;;;;;;17.49;100.00;103141.97;4991528;28;20046;-46
2024/01/27 07:07:25;;;;;;;2.53;1.38;;;;;;;17.47;100.00;103135.94;4990119;28;20066;-48
2024/01/27 07:09:52;;;;;;;2.60;1.10;;;;;;;17.47;100.00;103147.19;4992792;28;20108;-45
2024/01/27 07:12:19;;;;;;;4.30;1.30;;;;;;;17.49;100.00;103153.22;4992690;28;20050;-47
2024/01/27 07:14:45;;;;;;;2.67;1.23;;;;;;;17.47;100.00;103158.44;4994687;28;20038;-47
2024/01/27 07:17:12;;;;;;;3.25;1.00;;;;;;;17.47;100.00;103164.06;4990507;28;20109;-47
2024/01/27 07:19:38;;;;;;;3.08;1.30;;;;;;;17.48;100.00;103165.69;4996898;28;20108;-49
2024/01/27 07:22:05;;;;;;;5.57;1.27;;;;;;;17.47;100.00;103169.69;4990450;28;20121;-47
2024/01/27 07:24:32;;;;;;;2.47;1.20;;;;;;;17.47;100.00;103173.31;4987134;28;20100;-45
2024/01/27 07:27:03;;;;;;;4.82;1.05;;;;;;;17.47;100.00;103173.31;4994440;28;20042;-50
2024/01/27 07:29:32;;;;;;;3.53;1.00;;;;;;;17.50;100.00;103171.69;4994221;28;20133;-49
2024/01/27 07:32:02;;;;;;;2.83;0.85;;;;;;;17.47;100.00;103170.50;4997691;28;20052;-47
2024/01/27 07:34:28;;;;;;;4.05;1.80;;;;;;;17.41;100.00;103179.78;4989599;28;20154;-50
2024/01/27 07:36:55;;;;;;;5.70;2.10;;;;;;;17.36;100.00;103178.97;4995459;28;20058;-46
2024/01/27 07:39:22;;;;;;;5.70;2.63;;;;;;;17.34;100.00;103167.34;4990423;28;20093;-47
2024/01/27 07:41:48;;;;;;;7.57;2.90;;;;;;;17.32;100.00;103166.94;4991755;28;20100;-48
2024/01/27 07:44:15;;;;;;;10.70;2.90;;;;;;;17.31;100.00;103175.78;4993679;28;20054;-46
2024/01/27 07:46:42;;;;;;;6.18;2.75;;;;;;;17.30;100.00;103171.38;4993754;28;20104;-45
2024/01/27 07:49:09;;;;;;;10.43;3.15;;;;;;;17.31;100.00;103175.78;4995311;28;20038;-47
2024/01/27 07:51:36;;;;;;;8.15;3.10;;;;;;;17.29;100.00;103170.56;4988869;28;20523;-45
2024/01/27 07:54:03;;;;;;;9.80;3.10;;;;;;;17.27;100.00;103174.97;4988229;28;20043;-48
2024/01/27 07:56:29;;;;;;;10.02;3.42;;;;;;;17.23;100.00;103175.00;4988308;28;20050;-46
2024/01/27 07:58:56;;;;;;;12.60;3.85;;;;;;;17.21;100.00;103176.59;4990789;28;20141;-49
2024/01/27 08:01:22;;;;;;;9.20;3.90;;;;;;;17.18;100.00;103171.78;4987224;28;20116;-48
2024/01/27 08:03:49;;;;;;;8.48;3.78;;;;;;;17.16;100.00;103175.03;4990340;28;20129;-51
2024/01/27 08:06:18;;;;;;;9.55;3.83;;;;;;;17.16;100.00;103182.66;4989442;28;20053;-46
2024/01/27 08:08:48;;;;;;;12.63;4.38;;;;;;;17.11;100.00;103183.03;4991984;28;20559;-46
2024/01/27 08:11:15;;;;;;;12.93;4.28;;;;;;;17.14;100.00;103183.03;4991009;28;20054;-49
2024/01/27 08:13:42;;;;;;;14.88;4.82;;;;;;;17.17;100.00;103190.69;4988994;28;20108;-44
2024/01/27 08:16:12;;;;;;;13.45;5.00;;;;;;;17.14;100.00;103191.47;4990314;28;20124;-46
2024/01/27 08:18:42;;;;;;;13.32;4.45;;;;;;;17.16;100.00;103191.91;4991646;28;20050;-47
2024/01/27 08:21:08;;;;;;;14.20;5.10;;;;;;;17.16;100.00;103188.25;4991124;28;20084;-51
2024/01/27 08:23:36;;;;;;;16.00;5.25;;;;;;;17.17;100.00;103187.88;4993217;28;20078;-48
2024/01/27 08:26:03;;;;;;;13.77;4.60;;;;;;;17.18;100.00;103192.28;4997581;28;20038;-46
2024/01/27 08:28:29;;;;;;;12.15;4.53;;;;;;;17.17;100.00;103195.47;4987656;28;20140;-51
2024/01/27 08:30:56;;;;;;;15.27;4.43;;;;;;;17.22;100.00;103183.84;4987827;28;20425;-47
2024/01/27 08:33:22;;;;;;;16.88;4.57;;;;;;;17.18;100.00;103191.47;4989665;28;20565;-48
2024/01/27 08:35:49;;;;;;;14.07;4.22;;;;;;;17.22;100.00;103187.44;4999648;28;20081;-50
2024/01/27 08:38:15;;;;;;;11.80;3.97;;;;;;;17.20;100.00;103187.06;4992179;28;20491;-48
2024/01/27 08:40:42;;;;;;;13.73;4.47;;;;;;;17.21;100.00;103194.28;4992535;28;20429;-47
2024/01/27 08:43:10;;;;;;;12.00;3.53;;;;;;;17.22;100.00;103193.06;4995016;28;20049;-47
2024/01/27 08:45:40;;;;;;;12.57;3.80;;;;;;;17.22;100.00;103192.28;4975479;28;20046;-49
2024/01/27 08:48:07;;;;;;;15.98;4.40;;;;;;;17.21;100.00;103196.28;4988629;28;20058;-48
2024/01/27 08:50:34;;;;;;;10.50;3.55;;;;;;;17.20;100.00;103192.69;4993338;28;20055;-49
2024/01/27 08:53:01;;;;;;;9.80;2.95;;;;;;;17.22;100.00;103193.06;4987322;28;20050;-48
2024/01/27 08:55:28;;;;;;;10.93;3.60;;;;;;;17.22;100.00;103193.06;4990449;28;20047;-48
2024/01/27 08:57:56;;;;;;;10.05;3.92;;;;;;;17.22;100.00;103192.28;4994935;28;20432;-46
2024/01/27 09:00:23;;;;;;;10.35;3.50;;;;;;;17.22;100.00;103201.50;4991752;28;20098;-47
2024/01/27 09:02:50;;;;;;;10.82;3.67;;;;;;;17.22;100.00;103198.69;4995819;28;20051;-49
2024/01/27 09:05:17;;;;;;;10.02;3.47;;;;;;;17.19;100.00;103195.91;4994749;28;20065;-46
2024/01/27 09:07:44;;;;;;;13.10;4.22;;;;;;;17.17;100.00;103204.72;4991106;28;20057;-46
2024/01/27 09:10:12;;;;;;;12.43;3.95;;;;;;;17.12;100.00;103213.56;4988017;28;20073;-45
2024/01/27 09:12:39;;;;;;;15.88;5.18;;;;;;;16.98;100.00;103207.91;4998195;28;20050;-48
2024/01/27 09:15:07;;;;;;;17.65;5.20;;;;;;;17.02;100.00;103205.13;4994244;28;20408;-46
2024/01/27 09:17:34;;;;;;;13.73;4.45;;;;;;;17.07;100.00;103208.31;4996800;28;20588;-47
2024/01/27 09:20:00;;;;;;;13.48;3.50;;;;;;;17.09;100.00;103200.28;4993739;28;20054;-47
2024/01/27 09:22:27;;;;;;;11.25;3.90;;;;;;;17.13;100.00;103206.75;4991721;28;20050;-47
2024/01/27 09:24:55;;;;;;;14.45;3.58;;;;;;;17.13;100.00;103195.50;4996568;28;20456;-48
2024/01/27 09:27:21;;;;;;;10.23;3.60;;;;;;;17.17;100.00;103201.91;4996582;28;20057;-42
2024/01/27 09:29:48;;;;;;;9.48;3.20;;;;;;;17.21;100.00;103196.28;4997151;28;20056;-44
2024/01/27 09:32:14;;;;;;;11.43;3.25;;;;;;;17.24;100.00;103201.91;4984096;28;20595;-46
2024/01/27 09:34:41;;;;;;;10.65;3.15;;;;;;;17.23;100.00;103211.56;4995715;28;20505;-44
2024/01/27 09:37:10;;;;;;;10.90;3.67;;;;;;;17.23;100.00;103202.31;4987826;28;20043;-46
2024/01/27 09:39:36;;;;;;;10.40;4.00;;;;;;;17.23;100.00;103202.31;4990059;28;20893;-44
2024/01/27 09:42:07;;;;;;;7.28;3.22;;;;;;;17.24;100.00;103193.47;4991105;28;20169;-47
2024/01/27 09:44:38;;;;;;;11.93;3.72;;;;;;;17.23;100.00;103200.31;4994560;28;20747;-44
2024/01/27 09:47:04;;;;;;;12.15;3.42;;;;;;;17.26;100.00;103201.50;4992451;28;20136;-45
2024/01/27 09:49:31;;;;;;;8.35;3.47;;;;;;;17.26;100.00;103205.09;4993143;28;20508;-47
2024/01/27 09:51:59;;;;;;;8.73;3.17;;;;;;;17.26;100.00;103205.09;4992287;28;20077;-43
2024/01/27 09:54:28;;;;;;;7.53;3.00;;;;;;;17.26;100.00;103198.69;4995275;28;20073;-47
2024/01/27 09:56:55;;;;;;;10.60;3.00;;;;;;;17.26;100.00;103199.47;4991376;28;20085;-46
2024/01/27 09:59:22;;;;;;;10.18;3.80;;;;;;;17.28;100.00;103204.69;4990542;28;20046;-47
2024/01/27 10:01:51;;;;;;;10.27;3.40;;;;;;;17.28;100.00;103207.50;4994928;28;20101;-50
2024/01/27 10:04:19;;;;;;;10.05;3.13;;;;;;;17.28;100.00;103199.88;4993677;28;20485;-49
2024/01/27 10:06:48;;;;;;;10.85;3.88;;;;;;;17.28;100.00;103204.69;4991163;28;20034;-46
2024/01/27 10:09:14;;;;;;;9.30;3.42;;;;;;;17.28;100.00;103205.50;4994901;28;20046;-46
2024/01/27 10:11:46;;;;;;;11.40;3.60;;;;;;;17.30;100.00;103214.34;4990929;28;20073;-46
2024/01/27 10:14:12;;;;;;;12.02;3.72;;;;;;;17.28;100.00;103225.19;4995404;28;20057;-47
2024/01/27 10:16:45;;;;;;;8.35;2.92;;;;;;;17.26;100.00;103230.41;4991968;28;20077;-47
2024/01/27 10:19:18;;;;;;;8.95;3.17;;;;;;;17.27;100.00;103217.16;4992046;28;20054;-46
2024/01/27 10:21:46;;;;;;;11.57;3.63;;;;;;;17.27;100.00;103209.53;4990511;28;20046;-44
2024/01/27 10:24:15;;;;;;;9.32;3.50;;;;;;;17.28;100.00;103210.31;4992119;28;20152;-45
2024/01/27 10:26:42;;;;;;;9.55;2.95;;;;;;;17.27;100.00;103215.16;4991291;28;20050;-49
2024/01/27 10:29:09;;;;;;;9.82;3.13;;;;;;;17.23;100.00;103220.00;4990934;28;20085;-46
2024/01/27 10:31:36;;;;;;;10.13;3.45;;;;;;;17.25;100.00;103222.41;4993537;28;20461;-48
2024/01/27 10:34:14;;;;;;;9.90;3.05;;;;;;;17.26;100.00;103238.06;4991988;28;20048;-49
2024/01/27 10:36:41;;;;;;;11.48;3.15;;;;;;;17.25;100.00;103225.22;4987615;28;20046;-46
2024/01/27 10:39:35;;;;;;;10.90;3.22;;;;;;;17.25;100.00;103226.00;4988373;28;20100;-47
2024/01/27 10:42:03;;;;;;;7.22;2.83;;;;;;;17.23;100.00;103228.44;4985202;28;20050;-45
2024/01/27 10:44:31;;;;;;;7.57;2.97;;;;;;;17.28;100.00;103219.56;4990356;28;20131;-47
2024/01/27 10:47:03;;;;;;;9.80;2.92;;;;;;;17.28;100.00;103219.56;4994321;28;20122;-46
2024/01/27 10:49:33;;;;;;;10.60;3.40;;;;;;;17.29;100.00;103215.53;4988200;28;20077;-45
2024/01/27 10:52:06;;;;;;;8.65;3.15;;;;;;;17.31;100.00;103224.38;4994195;28;20409;-47
2024/01/27 10:54:33;;;;;;;9.95;2.88;;;;;;;17.34;100.00;103217.13;4989330;28;20081;-49
2024/01/27 10:57:01;;;;;;;7.82;2.92;;;;;;;17.35;100.00;103213.94;4990150;28;20046;-48
2024/01/27 10:59:31;;;;;;;6.65;2.40;;;;;;;17.36;100.00;103215.53;4989515;28;20449;-47
2024/01/27 11:01:58;;;;;;;9.60;2.90;;;;;;;17.38;100.00;103213.13;4993711;28;20050;-45
2024/01/27 11:04:25;;;;;;;6.53;2.42;;;;;;;17.39;100.00;103228.78;4993904;28;20043;-47
2024/01/27 11:06:53;;;;;;;9.13;3.10;;;;;;;17.40;100.00;103218.34;4990417;28;20079;-49
2024/01/27 11:09:21;;;;;;;8.65;3.10;;;;;;;17.40;100.00;103218.34;4989965;28;20058;-47
2024/01/27 11:11:48;;;;;;;6.63;2.42;;;;;;;17.42;100.00;103220.75;4989874;28;20096;-45
2024/01/27 11:14:15;;;;;;;8.95;2.55;;;;;;;17.42;100.00;103213.91;4989556;28;20046;-45
2024/01/27 11:16:47;;;;;;;7.30;2.65;;;;;;;17.42;100.00;103213.13;4990316;28;20117;-44